Benguela Airport


Codes: FNBG/BUG
Name: Benguela Airport
City: Benguela
Country: Angola
Elevation: 118 ft.
Wikipedia:

Photos at Benguela Airport


   Photos courtesy of SpottingLog. You can add your own sightings and photos by signing up for a free trial today.



No photos found.

Weather at Benguela Airport


Time (UTC)DescriptionTempratureWindCloud coverageVisibilityPressureHumidity
19-Apr-2024 03:00Broken Clouds26°C4 mph, SE76%10000m1011hPa87%
19-Apr-2024 06:00Broken Clouds26°C2 mph, NE76%10000m1012hPa86%
19-Apr-2024 09:00Overcast Clouds29°C2 mph, NE89%10000m1012hPa75%
19-Apr-2024 12:00Broken Clouds32°C9 mph, NW60%10000m1010hPa63%
19-Apr-2024 15:00Overcast Clouds31°C11 mph, W100%10000m1008hPa69%
19-Apr-2024 18:00Overcast Clouds28°C4 mph, W98%10000m1010hPa83%
19-Apr-2024 21:00Broken Clouds27°C2 mph, SW84%10000m1011hPa88%
20-Apr-2024 00:00Broken Clouds26°C2 mph, S81%10000m1011hPa88%
20-Apr-2024 03:00Overcast Clouds26°C0 mph, E92%10000m1010hPa87%
20-Apr-2024 06:00Broken Clouds27°C2 mph, E64%10000m1011hPa82%
20-Apr-2024 09:00Clear Sky31°C0 mph, NE10%10000m1011hPa59%
20-Apr-2024 12:00Few Clouds32°C7 mph, NW11%10000m1008hPa58%
20-Apr-2024 15:00Few Clouds31°C9 mph, W16%10000m1006hPa67%
20-Apr-2024 18:00Few Clouds28°C2 mph, W18%10000m1008hPa84%
20-Apr-2024 21:00Clear Sky27°C2 mph, SW8%10000m1009hPa87%
21-Apr-2024 00:00Clear Sky26°C2 mph, SE4%10000m1008hPa86%
21-Apr-2024 03:00Scattered Clouds26°C4 mph, S39%10000m1007hPa82%
21-Apr-2024 06:00Broken Clouds27°C4 mph, SE64%10000m1008hPa71%
21-Apr-2024 09:00Scattered Clouds32°C7 mph, N42%10000m1009hPa56%
21-Apr-2024 12:00Scattered Clouds32°C9 mph, N30%10000m1007hPa62%
21-Apr-2024 15:00Clear Sky30°C7 mph, NW2%10000m1006hPa68%
21-Apr-2024 18:00Clear Sky28°C4 mph, NW1%10000m1007hPa81%
21-Apr-2024 21:00Few Clouds27°C2 mph, SW14%10000m1009hPa83%
22-Apr-2024 00:00Clear Sky26°C0 mph, SE8%10000m1008hPa83%
22-Apr-2024 03:00Clear Sky26°C4 mph, SE0%10000m1007hPa80%
22-Apr-2024 06:00Clear Sky27°C2 mph, SE7%10000m1008hPa74%
22-Apr-2024 09:00Scattered Clouds32°C0 mph, N29%10000m1009hPa54%
22-Apr-2024 12:00Few Clouds33°C9 mph, NW21%10000m1006hPa56%
22-Apr-2024 15:00Scattered Clouds31°C7 mph, NW44%10000m1006hPa65%
22-Apr-2024 18:00Broken Clouds28°C4 mph, W55%10000m1008hPa80%
22-Apr-2024 21:00Broken Clouds27°C2 mph, W74%10000m1009hPa83%
23-Apr-2024 00:00Overcast Clouds26°C2 mph, S87%10000m1008hPa83%
23-Apr-2024 03:00Overcast Clouds26°C2 mph, SE93%10000m1008hPa80%
23-Apr-2024 06:00Overcast Clouds27°C2 mph, E97%10000m1009hPa74%
23-Apr-2024 09:00Overcast Clouds31°C2 mph, NE100%10000m1010hPa59%
23-Apr-2024 12:00Overcast Clouds32°C9 mph, NW100%10000m1008hPa58%
23-Apr-2024 15:00Overcast Clouds30°C9 mph, NW96%10000m1008hPa70%
23-Apr-2024 18:00Overcast Clouds27°C2 mph, W87%10000m1009hPa84%
23-Apr-2024 21:00Broken Clouds26°C2 mph, NE70%10000m1011hPa85%
24-Apr-2024 00:00Broken Clouds26°C2 mph, SE71%10000m1010hPa87%